sensor_id;sensor_type;location;lat;lon;timestamp;temperature;humidity
41630;DHT22;27322;49.488;8.480;2023-02-01T00:01:54;7.30;99.90
41630;DHT22;27322;49.488;8.480;2023-02-01T00:04:20;7.30;99.90
41630;DHT22;27322;49.488;8.480;2023-02-01T00:06:46;7.30;99.90
41630;DHT22;27322;49.488;8.480;2023-02-01T00:09:12;7.40;99.90
41630;DHT22;27322;49.488;8.480;2023-02-01T00:11:37;7.30;99.90
41630;DHT22;27322;49.488;8.480;2023-02-01T00:14:03;7.30;99.90
41630;DHT22;27322;49.488;8.480;2023-02-01T00:16:30;7.30;99.90
41630;DHT22;27322;49.488;8.480;2023-02-01T00:19:03;7.30;99.90
41630;DHT22;27322;49.488;8.480;2023-02-01T00:21:30;7.30;99.90
41630;DHT22;27322;49.488;8.480;2023-02-01T00:23:56;7.30;99.90
41630;DHT22;27322;49.488;8.480;2023-02-01T00:26:34;7.30;99.90
41630;DHT22;27322;49.488;8.480;2023-02-01T00:29:03;7.30;99.90
41630;DHT22;27322;49.488;8.480;2023-02-01T00:31:29;7.30;99.90
41630;DHT22;27322;49.488;8.480;2023-02-01T00:33:55;7.30;99.90
41630;DHT22;27322;49.488;8.480;2023-02-01T00:36:20;7.30;99.90
41630;DHT22;27322;49.488;8.480;2023-02-01T00:38:46;7.30;99.90
41630;DHT22;27322;49.488;8.480;2023-02-01T00:41:17;7.30;99.90
41630;DHT22;27322;49.488;8.480;2023-02-01T00:43:44;7.30;99.90
41630;DHT22;27322;49.488;8.480;2023-02-01T00:46:11;7.30;99.90
41630;DHT22;27322;49.488;8.480;2023-02-01T00:48:37;7.30;99.90
41630;DHT22;27322;49.488;8.480;2023-02-01T00:51:05;7.30;99.90
41630;DHT22;27322;49.488;8.480;2023-02-01T00:53:32;7.30;99.90
41630;DHT22;27322;49.488;8.480;2023-02-01T00:55:58;7.30;99.90
41630;DHT22;27322;49.488;8.480;2023-02-01T00:58:24;7.30;99.90
41630;DHT22;27322;49.488;8.480;2023-02-01T01:01:01;7.30;99.90
41630;DHT22;27322;49.488;8.480;2023-02-01T01:03:28;7.20;99.90
41630;DHT22;27322;49.488;8.480;2023-02-01T01:05:56;7.30;99.90
41630;DHT22;27322;49.488;8.480;2023-02-01T01:08:22;7.30;99.90
41630;DHT22;27322;49.488;8.480;2023-02-01T01:10:48;7.30;99.90
41630;DHT22;27322;49.488;8.480;2023-02-01T01:13:14;7.30;99.90
41630;DHT22;27322;49.488;8.480;2023-02-01T01:15:40;7.30;99.90
41630;DHT22;27322;49.488;8.480;2023-02-01T01:18:06;7.30;99.90
41630;DHT22;27322;49.488;8.480;2023-02-01T01:20:35;7.30;99.90
41630;DHT22;27322;49.488;8.480;2023-02-01T01:23:02;7.30;99.90
41630;DHT22;27322;49.488;8.480;2023-02-01T01:25:28;7.30;99.90
41630;DHT22;27322;49.488;8.480;2023-02-01T01:27:54;7.30;99.90
41630;DHT22;27322;49.488;8.480;2023-02-01T01:30:19;7.30;99.90
41630;DHT22;27322;49.488;8.480;2023-02-01T01:32:45;7.30;99.90
41630;DHT22;27322;49.488;8.480;2023-02-01T01:35:11;7.30;99.90
41630;DHT22;27322;49.488;8.480;2023-02-01T01:37:36;7.30;99.90
41630;DHT22;27322;49.488;8.480;2023-02-01T01:40:04;7.30;99.90
41630;DHT22;27322;49.488;8.480;2023-02-01T01:42:29;7.30;99.90
41630;DHT22;27322;49.488;8.480;2023-02-01T01:45:24;7.40;99.90
41630;DHT22;27322;49.488;8.480;2023-02-01T01:47:51;7.30;99.90
41630;DHT22;27322;49.488;8.480;2023-02-01T01:50:22;7.30;99.90
41630;DHT22;27322;49.488;8.480;2023-02-01T01:52:50;7.40;99.90
41630;DHT22;27322;49.488;8.480;2023-02-01T01:55:18;7.30;99.90
41630;DHT22;27322;49.488;8.480;2023-02-01T01:57:50;7.40;99.90
41630;DHT22;27322;49.488;8.480;2023-02-01T02:00:19;7.30;99.90
41630;DHT22;27322;49.488;8.480;2023-02-01T02:02:47;7.30;99.90
41630;DHT22;27322;49.488;8.480;2023-02-01T02:05:15;7.30;99.90
41630;DHT22;27322;49.488;8.480;2023-02-01T02:07:46;7.30;99.90
41630;DHT22;27322;49.488;8.480;2023-02-01T02:10:13;7.30;99.90
41630;DHT22;27322;49.488;8.480;2023-02-01T02:12:41;7.30;99.90
41630;DHT22;27322;49.488;8.480;2023-02-01T02:15:13;7.30;99.90
41630;DHT22;27322;49.488;8.480;2023-02-01T02:42:32;7.30;99.90
41630;DHT22;27322;49.488;8.480;2023-02-01T02:46:02;7.30;99.90
41630;DHT22;27322;49.488;8.480;2023-02-01T02:48:53;7.30;99.90
41630;DHT22;27322;49.488;8.480;2023-02-01T02:51:27;7.30;99.90
41630;DHT22;27322;49.488;8.480;2023-02-01T02:54:20;7.30;99.90
41630;DHT22;27322;49.488;8.480;2023-02-01T02:57:09;7.20;99.90
41630;DHT22;27322;49.488;8.480;2023-02-01T02:59:56;7.30;99.90
41630;DHT22;27322;49.488;8.480;2023-02-01T03:02:41;7.30;99.90
41630;DHT22;27322;49.488;8.480;2023-02-01T03:05:35;7.30;99.90
41630;DHT22;27322;49.488;8.480;2023-02-01T03:10:34;7.30;99.90
41630;DHT22;27322;49.488;8.480;2023-02-01T03:13:08;7.30;99.90
41630;DHT22;27322;49.488;8.480;2023-02-01T03:18:13;7.30;99.90
41630;DHT22;27322;49.488;8.480;2023-02-01T03:20:44;7.30;99.90
41630;DHT22;27322;49.488;8.480;2023-02-01T03:23:12;7.30;99.90
41630;DHT22;27322;49.488;8.480;2023-02-01T03:25:39;7.30;99.90
41630;DHT22;27322;49.488;8.480;2023-02-01T03:28:10;7.40;99.90
41630;DHT22;27322;49.488;8.480;2023-02-01T03:30:39;7.40;99.90
41630;DHT22;27322;49.488;8.480;2023-02-01T03:33:11;7.40;99.90
41630;DHT22;27322;49.488;8.480;2023-02-01T03:44:17;7.40;99.90
41630;DHT22;27322;49.488;8.480;2023-02-01T03:49:28;7.40;99.90
41630;DHT22;27322;49.488;8.480;2023-02-01T03:51:58;7.40;99.90
41630;DHT22;27322;49.488;8.480;2023-02-01T03:54:26;7.40;99.90
41630;DHT22;27322;49.488;8.480;2023-02-01T03:56:55;7.40;99.90
41630;DHT22;27322;49.488;8.480;2023-02-01T03:59:21;7.40;99.90
41630;DHT22;27322;49.488;8.480;2023-02-01T04:01:47;7.40;99.90
41630;DHT22;27322;49.488;8.480;2023-02-01T04:04:13;7.40;99.90
41630;DHT22;27322;49.488;8.480;2023-02-01T04:06:46;7.40;99.90
41630;DHT22;27322;49.488;8.480;2023-02-01T04:09:11;7.40;99.90
41630;DHT22;27322;49.488;8.480;2023-02-01T04:11:37;7.40;99.90
41630;DHT22;27322;49.488;8.480;2023-02-01T04:14:03;7.50;99.90
41630;DHT22;27322;49.488;8.480;2023-02-01T04:16:33;7.40;99.90
41630;DHT22;27322;49.488;8.480;2023-02-01T04:18:59;7.40;99.90
41630;DHT22;27322;49.488;8.480;2023-02-01T04:21:27;7.40;99.90
41630;DHT22;27322;49.488;8.480;2023-02-01T04:23:53;7.40;99.90
41630;DHT22;27322;49.488;8.480;2023-02-01T04:26:20;7.40;99.90
41630;DHT22;27322;49.488;8.480;2023-02-01T04:28:46;7.40;99.90
41630;DHT22;27322;49.488;8.480;2023-02-01T04:31:16;7.50;99.90
41630;DHT22;27322;49.488;8.480;2023-02-01T04:33:43;7.40;99.90
41630;DHT22;27322;49.488;8.480;2023-02-01T04:36:09;7.50;99.90
41630;DHT22;27322;49.488;8.480;2023-02-01T04:38:35;7.50;99.90
41630;DHT22;27322;49.488;8.480;2023-02-01T04:41:00;7.50;99.90
41630;DHT22;27322;49.488;8.480;2023-02-01T04:43:26;7.50;99.90
41630;DHT22;27322;49.488;8.480;2023-02-01T04:45:52;7.50;99.90
41630;DHT22;27322;49.488;8.480;2023-02-01T04:48:19;7.50;99.90
41630;DHT22;27322;49.488;8.480;2023-02-01T04:50:46;7.50;99.90
41630;DHT22;27322;49.488;8.480;2023-02-01T04:53:14;7.50;99.90
41630;DHT22;27322;49.488;8.480;2023-02-01T04:55:40;7.50;99.90
41630;DHT22;27322;49.488;8.480;2023-02-01T04:58:06;7.50;99.90
41630;DHT22;27322;49.488;8.480;2023-02-01T05:00:31;7.60;99.90
41630;DHT22;27322;49.488;8.480;2023-02-01T05:02:57;7.50;99.90
41630;DHT22;27322;49.488;8.480;2023-02-01T05:05:23;7.50;99.90
41630;DHT22;27322;49.488;8.480;2023-02-01T05:07:48;7.50;99.90
41630;DHT22;27322;49.488;8.480;2023-02-01T05:10:14;7.50;99.90
41630;DHT22;27322;49.488;8.480;2023-02-01T05:12:39;7.50;99.90
41630;DHT22;27322;49.488;8.480;2023-02-01T05:15:23;7.50;99.90
41630;DHT22;27322;49.488;8.480;2023-02-01T05:17:49;7.50;99.90
41630;DHT22;27322;49.488;8.480;2023-02-01T05:20:15;7.50;99.90
41630;DHT22;27322;49.488;8.480;2023-02-01T05:22:41;7.50;99.90
41630;DHT22;27322;49.488;8.480;2023-02-01T05:25:07;7.50;99.90
41630;DHT22;27322;49.488;8.480;2023-02-01T05:27:33;7.50;99.90
41630;DHT22;27322;49.488;8.480;2023-02-01T05:29:58;7.50;99.90
41630;DHT22;27322;49.488;8.480;2023-02-01T05:32:27;7.50;99.90
41630;DHT22;27322;49.488;8.480;2023-02-01T05:34:52;7.40;99.90
41630;DHT22;27322;49.488;8.480;2023-02-01T05:37:18;7.40;99.90
41630;DHT22;27322;49.488;8.480;2023-02-01T05:39:43;7.40;99.90
41630;DHT22;27322;49.488;8.480;2023-02-01T05:42:09;7.40;99.90
41630;DHT22;27322;49.488;8.480;2023-02-01T05:44:34;7.30;99.90
41630;DHT22;27322;49.488;8.480;2023-02-01T05:47:00;7.30;99.90
41630;DHT22;27322;49.488;8.480;2023-02-01T05:49:26;7.30;99.90
41630;DHT22;27322;49.488;8.480;2023-02-01T05:51:51;7.30;99.90
41630;DHT22;27322;49.488;8.480;2023-02-01T05:54:17;7.30;99.90
41630;DHT22;27322;49.488;8.480;2023-02-01T05:56:42;7.30;99.90
41630;DHT22;27322;49.488;8.480;2023-02-01T05:59:09;7.20;99.90
41630;DHT22;27322;49.488;8.480;2023-02-01T06:01:35;7.30;99.90
41630;DHT22;27322;49.488;8.480;2023-02-01T06:04:00;7.20;99.90
41630;DHT22;27322;49.488;8.480;2023-02-01T06:06:26;7.20;99.90
41630;DHT22;27322;49.488;8.480;2023-02-01T06:08:52;7.20;99.90
41630;DHT22;27322;49.488;8.480;2023-02-01T06:11:17;7.20;99.90
41630;DHT22;27322;49.488;8.480;2023-02-01T06:13:43;7.20;99.90
41630;DHT22;27322;49.488;8.480;2023-02-01T06:16:09;7.20;99.90
41630;DHT22;27322;49.488;8.480;2023-02-01T06:18:35;7.20;99.90
41630;DHT22;27322;49.488;8.480;2023-02-01T06:21:01;7.20;99.90
41630;DHT22;27322;49.488;8.480;2023-02-01T06:23:27;7.20;99.90
41630;DHT22;27322;49.488;8.480;2023-02-01T06:25:59;7.10;99.90
41630;DHT22;27322;49.488;8.480;2023-02-01T06:28:26;7.10;99.90
41630;DHT22;27322;49.488;8.480;2023-02-01T06:30:52;7.20;99.90
41630;DHT22;27322;49.488;8.480;2023-02-01T06:33:18;7.20;99.90
41630;DHT22;27322;49.488;8.480;2023-02-01T06:35:44;7.20;99.90
41630;DHT22;27322;49.488;8.480;2023-02-01T06:38:11;7.20;99.90
41630;DHT22;27322;49.488;8.480;2023-02-01T06:40:37;7.20;99.90
41630;DHT22;27322;49.488;8.480;2023-02-01T06:43:03;7.20;99.90
41630;DHT22;27322;49.488;8.480;2023-02-01T06:45:29;7.20;99.90
41630;DHT22;27322;49.488;8.480;2023-02-01T06:47:54;7.20;99.90
41630;DHT22;27322;49.488;8.480;2023-02-01T06:50:20;7.20;99.90
41630;DHT22;27322;49.488;8.480;2023-02-01T06:52:46;7.20;99.90
41630;DHT22;27322;49.488;8.480;2023-02-01T06:55:11;7.20;99.90
41630;DHT22;27322;49.488;8.480;2023-02-01T06:57:38;7.30;99.90
41630;DHT22;27322;49.488;8.480;2023-02-01T07:00:04;7.30;99.90
41630;DHT22;27322;49.488;8.480;2023-02-01T07:02:30;7.30;99.90
41630;DHT22;27322;49.488;8.480;2023-02-01T07:04:56;7.30;99.90
41630;DHT22;27322;49.488;8.480;2023-02-01T07:07:21;7.30;99.90
41630;DHT22;27322;49.488;8.480;2023-02-01T07:09:48;7.30;99.90
41630;DHT22;27322;49.488;8.480;2023-02-01T07:12:14;7.30;99.90
41630;DHT22;27322;49.488;8.480;2023-02-01T07:14:40;7.30;99.90
41630;DHT22;27322;49.488;8.480;2023-02-01T07:17:05;7.40;99.90
41630;DHT22;27322;49.488;8.480;2023-02-01T07:19:31;7.40;99.90
41630;DHT22;27322;49.488;8.480;2023-02-01T07:21:57;7.40;99.90
41630;DHT22;27322;49.488;8.480;2023-02-01T07:24:22;7.40;99.90
41630;DHT22;27322;49.488;8.480;2023-02-01T07:26:48;7.40;99.90
41630;DHT22;27322;49.488;8.480;2023-02-01T07:29:16;7.40;99.90
41630;DHT22;27322;49.488;8.480;2023-02-01T07:31:42;7.40;99.90
41630;DHT22;27322;49.488;8.480;2023-02-01T07:34:08;7.40;99.90
41630;DHT22;27322;49.488;8.480;2023-02-01T07:36:33;7.40;99.90
41630;DHT22;27322;49.488;8.480;2023-02-01T07:38:59;7.40;99.90
41630;DHT22;27322;49.488;8.480;2023-02-01T07:41:25;7.40;99.90
41630;DHT22;27322;49.488;8.480;2023-02-01T07:43:54;7.40;99.90
41630;DHT22;27322;49.488;8.480;2023-02-01T07:46:20;7.40;99.90
41630;DHT22;27322;49.488;8.480;2023-02-01T07:48:46;7.40;99.90
41630;DHT22;27322;49.488;8.480;2023-02-01T07:51:13;7.40;99.90
41630;DHT22;27322;49.488;8.480;2023-02-01T07:53:40;7.40;99.90
41630;DHT22;27322;49.488;8.480;2023-02-01T07:56:14;7.40;99.90
41630;DHT22;27322;49.488;8.480;2023-02-01T07:58:40;7.40;99.90
41630;DHT22;27322;49.488;8.480;2023-02-01T08:01:06;7.40;99.90
41630;DHT22;27322;49.488;8.480;2023-02-01T08:03:46;7.40;99.90
41630;DHT22;27322;49.488;8.480;2023-02-01T08:06:12;7.40;99.90
41630;DHT22;27322;49.488;8.480;2023-02-01T08:08:37;7.40;99.90
41630;DHT22;27322;49.488;8.480;2023-02-01T08:11:05;7.50;99.90
41630;DHT22;27322;49.488;8.480;2023-02-01T08:13:32;7.50;99.90
41630;DHT22;27322;49.488;8.480;2023-02-01T08:16:02;7.50;99.90
41630;DHT22;27322;49.488;8.480;2023-02-01T08:18:28;7.50;99.90
41630;DHT22;27322;49.488;8.480;2023-02-01T08:20:54;7.60;99.90
41630;DHT22;27322;49.488;8.480;2023-02-01T08:23:20;7.50;99.90
41630;DHT22;27322;49.488;8.480;2023-02-01T08:25:46;7.60;99.90
41630;DHT22;27322;49.488;8.480;2023-02-01T08:28:12;7.60;99.90
41630;DHT22;27322;49.488;8.480;2023-02-01T08:30:38;7.60;99.90
41630;DHT22;27322;49.488;8.480;2023-02-01T08:33:05;7.60;99.90
41630;DHT22;27322;49.488;8.480;2023-02-01T08:35:34;7.70;99.90
41630;DHT22;27322;49.488;8.480;2023-02-01T08:37:59;7.70;99.90
41630;DHT22;27322;49.488;8.480;2023-02-01T08:40:25;7.70;99.90
41630;DHT22;27322;49.488;8.480;2023-02-01T08:42:50;7.70;99.90
41630;DHT22;27322;49.488;8.480;2023-02-01T08:45:21;7.70;99.90
41630;DHT22;27322;49.488;8.480;2023-02-01T08:47:47;7.70;99.90
41630;DHT22;27322;49.488;8.480;2023-02-01T08:50:13;7.70;99.90
41630;DHT22;27322;49.488;8.480;2023-02-01T08:52:39;7.80;99.90
41630;DHT22;27322;49.488;8.480;2023-02-01T08:55:06;7.80;99.90
41630;DHT22;27322;49.488;8.480;2023-02-01T08:57:32;7.80;99.90
41630;DHT22;27322;49.488;8.480;2023-02-01T08:59:58;7.80;99.90
41630;DHT22;27322;49.488;8.480;2023-02-01T09:02:24;7.80;99.90
41630;DHT22;27322;49.488;8.480;2023-02-01T09:04:50;7.80;99.90
41630;DHT22;27322;49.488;8.480;2023-02-01T09:07:15;7.90;99.90
41630;DHT22;27322;49.488;8.480;2023-02-01T09:09:43;7.80;99.90
41630;DHT22;27322;49.488;8.480;2023-02-01T09:12:09;7.90;99.90
41630;DHT22;27322;49.488;8.480;2023-02-01T09:14:35;7.90;99.90
41630;DHT22;27322;49.488;8.480;2023-02-01T09:17:03;8.00;99.90
41630;DHT22;27322;49.488;8.480;2023-02-01T09:19:30;8.00;99.90
41630;DHT22;27322;49.488;8.480;2023-02-01T09:21:56;8.00;99.90
41630;DHT22;27322;49.488;8.480;2023-02-01T09:24:22;8.10;99.90
41630;DHT22;27322;49.488;8.480;2023-02-01T09:26:48;8.10;99.90
41630;DHT22;27322;49.488;8.480;2023-02-01T09:29:14;8.10;99.90
41630;DHT22;27322;49.488;8.480;2023-02-01T09:31:40;8.20;99.90
41630;DHT22;27322;49.488;8.480;2023-02-01T09:34:06;8.10;99.90
41630;DHT22;27322;49.488;8.480;2023-02-01T09:36:32;8.10;99.90
41630;DHT22;27322;49.488;8.480;2023-02-01T09:38:59;8.10;99.90
41630;DHT22;27322;49.488;8.480;2023-02-01T09:47:22;8.20;99.90
41630;DHT22;27322;49.488;8.480;2023-02-01T09:50:17;8.20;99.90
41630;DHT22;27322;49.488;8.480;2023-02-01T09:53:01;8.20;99.90
41630;DHT22;27322;49.488;8.480;2023-02-01T09:55:41;8.20;99.90
41630;DHT22;27322;49.488;8.480;2023-02-01T09:58:17;8.20;99.90
41630;DHT22;27322;49.488;8.480;2023-02-01T10:00:57;8.20;99.90
41630;DHT22;27322;49.488;8.480;2023-02-01T10:03:26;8.30;99.90
41630;DHT22;27322;49.488;8.480;2023-02-01T10:25:26;8.40;99.90
41630;DHT22;27322;49.488;8.480;2023-02-01T10:27:52;8.50;99.90
41630;DHT22;27322;49.488;8.480;2023-02-01T10:30:21;8.40;99.90
41630;DHT22;27322;49.488;8.480;2023-02-01T10:32:49;8.50;99.90
41630;DHT22;27322;49.488;8.480;2023-02-01T10:35:31;8.50;99.90
41630;DHT22;27322;49.488;8.480;2023-02-01T10:38:00;8.50;99.90
41630;DHT22;27322;49.488;8.480;2023-02-01T10:40:29;8.50;99.90
41630;DHT22;27322;49.488;8.480;2023-02-01T10:42:59;8.40;99.90
41630;DHT22;27322;49.488;8.480;2023-02-01T10:45:27;8.40;99.90
41630;DHT22;27322;49.488;8.480;2023-02-01T10:47:55;8.40;99.90
41630;DHT22;27322;49.488;8.480;2023-02-01T10:50:51;8.40;99.90
41630;DHT22;27322;49.488;8.480;2023-02-01T10:55:50;8.50;99.90
41630;DHT22;27322;49.488;8.480;2023-02-01T10:58:31;8.50;99.90
41630;DHT22;27322;49.488;8.480;2023-02-01T11:06:11;8.50;99.90
41630;DHT22;27322;49.488;8.480;2023-02-01T11:08:44;8.50;99.90
41630;DHT22;27322;49.488;8.480;2023-02-01T11:11:10;8.50;99.90
41630;DHT22;27322;49.488;8.480;2023-02-01T11:13:39;8.50;99.90
41630;DHT22;27322;49.488;8.480;2023-02-01T11:22:54;8.50;99.90
41630;DHT22;27322;49.488;8.480;2023-02-01T11:25:20;8.60;99.90
41630;DHT22;27322;49.488;8.480;2023-02-01T11:27:48;8.50;99.90
41630;DHT22;27322;49.488;8.480;2023-02-01T11:30:22;8.60;99.90
41630;DHT22;27322;49.488;8.480;2023-02-01T11:32:51;8.60;99.90
41630;DHT22;27322;49.488;8.480;2023-02-01T11:35:19;8.50;99.90
41630;DHT22;27322;49.488;8.480;2023-02-01T11:37:52;8.60;99.90
41630;DHT22;27322;49.488;8.480;2023-02-01T11:43:07;8.60;99.90
41630;DHT22;27322;49.488;8.480;2023-02-01T11:45:34;8.60;99.90
41630;DHT22;27322;49.488;8.480;2023-02-01T11:48:18;8.60;99.90
41630;DHT22;27322;49.488;8.480;2023-02-01T12:04:57;8.50;99.90
41630;DHT22;27322;49.488;8.480;2023-02-01T12:15:34;8.60;99.90
41630;DHT22;27322;49.488;8.480;2023-02-01T12:42:29;8.50;99.90
41630;DHT22;27322;49.488;8.480;2023-02-01T12:47:44;8.50;99.90
41630;DHT22;27322;49.488;8.480;2023-02-01T12:50:23;8.50;99.90
41630;DHT22;27322;49.488;8.480;2023-02-01T12:52:54;8.50;99.90
41630;DHT22;27322;49.488;8.480;2023-02-01T12:58:04;8.40;99.90
41630;DHT22;27322;49.488;8.480;2023-02-01T13:00:38;8.40;99.90
41630;DHT22;27322;49.488;8.480;2023-02-01T13:06:12;8.40;99.90
41630;DHT22;27322;49.488;8.480;2023-02-01T13:08:51;8.40;99.90
41630;DHT22;27322;49.488;8.480;2023-02-01T13:11:33;8.40;99.90
41630;DHT22;27322;49.488;8.480;2023-02-01T13:15:03;8.50;99.90
41630;DHT22;27322;49.488;8.480;2023-02-01T13:17:21;8.40;99.90
41630;DHT22;27322;49.488;8.480;2023-02-01T13:22:21;8.40;99.90
41630;DHT22;27322;49.488;8.480;2023-02-01T13:24:57;8.40;99.90
41630;DHT22;27322;49.488;8.480;2023-02-01T13:27:27;8.40;99.90
41630;DHT22;27322;49.488;8.480;2023-02-01T13:29:59;8.50;99.90
41630;DHT22;27322;49.488;8.480;2023-02-01T13:40:46;8.50;99.90
41630;DHT22;27322;49.488;8.480;2023-02-01T13:43:23;8.50;99.90
41630;DHT22;27322;49.488;8.480;2023-02-01T13:45:54;8.50;99.90
41630;DHT22;27322;49.488;8.480;2023-02-01T13:48:29;8.50;99.90
41630;DHT22;27322;49.488;8.480;2023-02-01T13:50:57;8.50;99.90
41630;DHT22;27322;49.488;8.480;2023-02-01T13:53:32;8.50;99.90
41630;DHT22;27322;49.488;8.480;2023-02-01T13:56:06;8.50;99.90
41630;DHT22;27322;49.488;8.480;2023-02-01T13:58:37;8.50;99.90
41630;DHT22;27322;49.488;8.480;2023-02-01T14:11:44;8.50;99.90
41630;DHT22;27322;49.488;8.480;2023-02-01T14:16:42;8.50;99.90
41630;DHT22;27322;49.488;8.480;2023-02-01T14:19:20;8.60;99.90
41630;DHT22;27322;49.488;8.480;2023-02-01T14:24:24;8.60;99.90
41630;DHT22;27322;49.488;8.480;2023-02-01T14:26:53;8.60;99.90
41630;DHT22;27322;49.488;8.480;2023-02-01T14:29:32;8.60;99.90
41630;DHT22;27322;49.488;8.480;2023-02-01T15:01:18;8.50;99.90
41630;DHT22;27322;49.488;8.480;2023-02-01T15:06:38;8.60;99.90
41630;DHT22;27322;49.488;8.480;2023-02-01T15:09:15;8.60;99.90
41630;DHT22;27322;49.488;8.480;2023-02-01T15:14:45;8.60;99.90
41630;DHT22;27322;49.488;8.480;2023-02-01T15:19:56;8.60;99.90
41630;DHT22;27322;49.488;8.480;2023-02-01T15:22:23;8.60;99.90
41630;DHT22;27322;49.488;8.480;2023-02-01T15:24:52;8.70;99.90
41630;DHT22;27322;49.488;8.480;2023-02-01T15:27:19;8.70;99.90
41630;DHT22;27322;49.488;8.480;2023-02-01T15:29:45;8.60;99.90
41630;DHT22;27322;49.488;8.480;2023-02-01T15:32:29;8.70;99.90
41630;DHT22;27322;49.488;8.480;2023-02-01T15:34:59;8.70;99.90
41630;DHT22;27322;49.488;8.480;2023-02-01T15:37:25;8.70;99.90
41630;DHT22;27322;49.488;8.480;2023-02-01T15:42:57;8.70;99.90
41630;DHT22;27322;49.488;8.480;2023-02-01T15:45:28;8.70;99.90
41630;DHT22;27322;49.488;8.480;2023-02-01T15:47:57;8.70;99.90
41630;DHT22;27322;49.488;8.480;2023-02-01T15:50:23;8.70;99.90
41630;DHT22;27322;49.488;8.480;2023-02-01T15:52:51;8.70;99.90
41630;DHT22;27322;49.488;8.480;2023-02-01T15:57:49;8.70;99.90
41630;DHT22;27322;49.488;8.480;2023-02-01T16:00:29;8.70;99.90
41630;DHT22;27322;49.488;8.480;2023-02-01T16:03:01;8.70;99.90
41630;DHT22;27322;49.488;8.480;2023-02-01T16:05:39;8.60;99.90
41630;DHT22;27322;49.488;8.480;2023-02-01T16:08:23;8.60;99.90
41630;DHT22;27322;49.488;8.480;2023-02-01T16:10:52;8.60;99.90
41630;DHT22;27322;49.488;8.480;2023-02-01T16:13:19;8.60;99.90
41630;DHT22;27322;49.488;8.480;2023-02-01T16:15:46;8.60;99.90
41630;DHT22;27322;49.488;8.480;2023-02-01T16:18:12;8.60;99.90
41630;DHT22;27322;49.488;8.480;2023-02-01T16:20:39;8.60;99.90
41630;DHT22;27322;49.488;8.480;2023-02-01T16:23:06;8.60;99.90
41630;DHT22;27322;49.488;8.480;2023-02-01T16:25:32;8.60;99.90
41630;DHT22;27322;49.488;8.480;2023-02-01T16:27:58;8.50;99.90
41630;DHT22;27322;49.488;8.480;2023-02-01T16:30:24;8.60;99.90
41630;DHT22;27322;49.488;8.480;2023-02-01T16:32:57;8.60;99.90
41630;DHT22;27322;49.488;8.480;2023-02-01T16:35:32;8.60;99.90
41630;DHT22;27322;49.488;8.480;2023-02-01T16:38:02;8.60;99.90
41630;DHT22;27322;49.488;8.480;2023-02-01T16:40:28;8.60;99.90
41630;DHT22;27322;49.488;8.480;2023-02-01T16:42:54;8.60;99.90
41630;DHT22;27322;49.488;8.480;2023-02-01T16:45:23;8.60;99.90
41630;DHT22;27322;49.488;8.480;2023-02-01T16:47:54;8.60;99.90
41630;DHT22;27322;49.488;8.480;2023-02-01T16:50:24;8.60;99.90
41630;DHT22;27322;49.488;8.480;2023-02-01T16:52:52;8.60;99.90
41630;DHT22;27322;49.488;8.480;2023-02-01T16:55:20;8.60;99.90
41630;DHT22;27322;49.488;8.480;2023-02-01T16:57:47;8.60;99.90
41630;DHT22;27322;49.488;8.480;2023-02-01T17:00:13;8.60;99.90
41630;DHT22;27322;49.488;8.480;2023-02-01T17:02:41;8.60;99.90
41630;DHT22;27322;49.488;8.480;2023-02-01T17:05:08;8.60;99.90
41630;DHT22;27322;49.488;8.480;2023-02-01T17:07:33;8.60;99.90
41630;DHT22;27322;49.488;8.480;2023-02-01T17:09:59;8.60;99.90
41630;DHT22;27322;49.488;8.480;2023-02-01T17:12:27;8.60;99.90
41630;DHT22;27322;49.488;8.480;2023-02-01T17:14:53;8.60;99.90
41630;DHT22;27322;49.488;8.480;2023-02-01T17:17:20;8.60;99.90
41630;DHT22;27322;49.488;8.480;2023-02-01T17:19:48;8.60;99.90
41630;DHT22;27322;49.488;8.480;2023-02-01T17:22:19;8.60;99.90
41630;DHT22;27322;49.488;8.480;2023-02-01T17:24:45;8.60;99.90
41630;DHT22;27322;49.488;8.480;2023-02-01T17:27:10;8.60;99.90
41630;DHT22;27322;49.488;8.480;2023-02-01T17:29:36;8.60;99.90
41630;DHT22;27322;49.488;8.480;2023-02-01T17:32:02;8.60;99.90
41630;DHT22;27322;49.488;8.480;2023-02-01T17:34:27;8.70;99.90
41630;DHT22;27322;49.488;8.480;2023-02-01T17:36:53;8.60;99.90
41630;DHT22;27322;49.488;8.480;2023-02-01T17:39:19;8.60;99.90
41630;DHT22;27322;49.488;8.480;2023-02-01T17:42:04;8.60;99.90
41630;DHT22;27322;49.488;8.480;2023-02-01T17:44:30;8.60;99.90
41630;DHT22;27322;49.488;8.480;2023-02-01T17:46:57;8.60;99.90
41630;DHT22;27322;49.488;8.480;2023-02-01T17:49:24;8.60;99.90
41630;DHT22;27322;49.488;8.480;2023-02-01T17:51:50;8.60;99.90
41630;DHT22;27322;49.488;8.480;2023-02-01T17:54:16;8.50;99.90
41630;DHT22;27322;49.488;8.480;2023-02-01T17:56:42;8.60;99.90
41630;DHT22;27322;49.488;8.480;2023-02-01T17:59:08;8.50;99.90
41630;DHT22;27322;49.488;8.480;2023-02-01T18:01:34;8.50;99.90
41630;DHT22;27322;49.488;8.480;2023-02-01T18:03:59;8.50;99.90
41630;DHT22;27322;49.488;8.480;2023-02-01T18:06:26;8.50;99.90
41630;DHT22;27322;49.488;8.480;2023-02-01T18:08:52;8.50;99.90
41630;DHT22;27322;49.488;8.480;2023-02-01T18:11:23;8.40;99.90
41630;DHT22;27322;49.488;8.480;2023-02-01T18:13:50;8.40;99.90
41630;DHT22;27322;49.488;8.480;2023-02-01T18:18:46;8.40;99.90
41630;DHT22;27322;49.488;8.480;2023-02-01T18:21:12;8.40;99.90
41630;DHT22;27322;49.488;8.480;2023-02-01T18:23:38;8.40;99.90
41630;DHT22;27322;49.488;8.480;2023-02-01T18:26:04;8.40;99.90
41630;DHT22;27322;49.488;8.480;2023-02-01T18:28:30;8.40;99.90
41630;DHT22;27322;49.488;8.480;2023-02-01T18:30:55;8.40;99.90
41630;DHT22;27322;49.488;8.480;2023-02-01T18:33:22;8.40;99.90
41630;DHT22;27322;49.488;8.480;2023-02-01T18:35:47;8.40;99.90
41630;DHT22;27322;49.488;8.480;2023-02-01T18:38:13;8.40;99.90
41630;DHT22;27322;49.488;8.480;2023-02-01T18:40:45;8.40;99.90
41630;DHT22;27322;49.488;8.480;2023-02-01T18:43:15;8.40;99.90
41630;DHT22;27322;49.488;8.480;2023-02-01T18:45:42;8.40;99.90
41630;DHT22;27322;49.488;8.480;2023-02-01T18:48:10;8.40;99.90
41630;DHT22;27322;49.488;8.480;2023-02-01T18:50:43;8.40;99.90
41630;DHT22;27322;49.488;8.480;2023-02-01T18:53:18;8.40;99.90
41630;DHT22;27322;49.488;8.480;2023-02-01T18:55:45;8.40;99.90
41630;DHT22;27322;49.488;8.480;2023-02-01T18:58:12;8.40;99.90
41630;DHT22;27322;49.488;8.480;2023-02-01T19:00:38;8.40;99.90
41630;DHT22;27322;49.488;8.480;2023-02-01T19:03:04;8.40;99.90
41630;DHT22;27322;49.488;8.480;2023-02-01T19:05:30;8.40;99.90
41630;DHT22;27322;49.488;8.480;2023-02-01T19:07:56;8.40;99.90
41630;DHT22;27322;49.488;8.480;2023-02-01T19:10:23;8.40;99.90
41630;DHT22;27322;49.488;8.480;2023-02-01T19:12:50;8.40;99.90
41630;DHT22;27322;49.488;8.480;2023-02-01T19:15:17;8.40;99.90
41630;DHT22;27322;49.488;8.480;2023-02-01T19:17:45;8.40;99.90
41630;DHT22;27322;49.488;8.480;2023-02-01T19:20:24;8.40;99.90
41630;DHT22;27322;49.488;8.480;2023-02-01T19:22:51;8.40;99.90
41630;DHT22;27322;49.488;8.480;2023-02-01T19:25:19;8.40;99.90
41630;DHT22;27322;49.488;8.480;2023-02-01T19:27:46;8.40;99.90